createdAt,value
2018-03-06T00:00:52.051Z,92.90
2018-03-06T00:02:45.304Z,92.99
2018-03-06T00:03:45.228Z,92.99
2018-03-06T00:05:38.506Z,93.08
2018-03-06T00:06:38.413Z,92.99
2018-03-06T00:08:31.776Z,93.27
2018-03-06T00:09:31.593Z,93.27
2018-03-06T00:11:24.862Z,92.99
2018-03-06T00:12:24.770Z,93.08
2018-03-06T00:14:18.055Z,93.46
2018-03-06T00:15:17.950Z,93.46
2018-03-06T00:17:11.203Z,93.18
2018-03-06T00:18:11.130Z,93.27
2018-03-06T00:20:04.393Z,93.27
2018-03-06T00:21:04.300Z,92.99
2018-03-06T00:22:57.554Z,92.99
2018-03-06T00:23:57.480Z,92.80
2018-03-06T00:25:50.750Z,93.37
2018-03-06T00:26:50.660Z,93.08
2018-03-06T00:28:43.909Z,93.37
2018-03-06T00:29:43.836Z,93.08
2018-03-06T00:31:37.113Z,93.08
2018-03-06T00:32:37.019Z,93.56
2018-03-06T00:34:30.272Z,93.37
2018-03-06T00:35:30.197Z,92.80
2018-03-06T00:37:23.474Z,93.18
2018-03-06T00:38:23.430Z,93.65
2018-03-06T00:40:16.629Z,93.37
2018-03-06T00:41:16.561Z,93.27
2018-03-06T00:43:09.941Z,93.56
2018-03-06T00:44:09.737Z,93.56
2018-03-06T00:46:03.125Z,93.46
2018-03-06T00:47:02.918Z,93.65
2018-03-06T00:48:56.163Z,93.65
2018-03-06T00:49:56.089Z,93.46
2018-03-06T00:51:49.357Z,93.94
2018-03-06T00:52:49.264Z,93.65
2018-03-06T00:54:42.516Z,93.94
2018-03-06T00:55:42.443Z,93.56
2018-03-06T00:57:35.721Z,93.46
2018-03-06T00:58:35.622Z,93.65
2018-03-06T01:00:28.862Z,93.94
2018-03-06T01:01:28.796Z,94.32
2018-03-06T01:03:22.052Z,94.60
2018-03-06T01:04:21.963Z,94.51
2018-03-06T01:06:15.212Z,94.18
2018-03-06T01:07:15.137Z,94.23
2018-03-06T01:09:08.527Z,95.07
2018-03-06T01:10:08.315Z,94.84
2018-03-06T01:12:01.603Z,95.03
2018-03-06T01:13:01.495Z,94.84
2018-03-06T01:14:54.748Z,94.74
2018-03-06T01:15:54.673Z,94.93
2018-03-06T01:17:47.945Z,94.98
2018-03-06T01:18:47.854Z,94.27
2018-03-06T01:20:41.222Z,94.08
2018-03-06T01:21:41.023Z,94.56
2018-03-06T01:23:34.293Z,94.74
2018-03-06T01:24:34.203Z,94.93
2018-03-06T01:26:27.442Z,94.84
2018-03-06T01:27:27.368Z,94.84
2018-03-06T01:29:20.749Z,94.93
2018-03-06T01:30:20.545Z,94.93
2018-03-06T01:32:13.795Z,95.12
2018-03-06T01:33:13.722Z,95.41
2018-03-06T01:35:06.992Z,95.41
2018-03-06T01:36:06.897Z,95.50
2018-03-06T01:38:00.181Z,95.22
2018-03-06T01:39:00.080Z,95.79
2018-03-06T01:40:53.413Z,95.69
2018-03-06T01:41:53.340Z,95.88
2018-03-06T01:43:47.598Z,96.45
2018-03-06T01:44:47.509Z,96.26
2018-03-06T01:46:40.754Z,96.17
2018-03-06T01:47:40.685Z,96.45
2018-03-06T01:49:33.957Z,96.64
2018-03-06T01:50:33.850Z,96.45
2018-03-06T01:52:27.210Z,96.26
2018-03-06T01:53:27.016Z,96.64
2018-03-06T01:55:20.275Z,96.55
2018-03-06T01:56:20.180Z,96.73
2018-03-06T01:58:13.433Z,97.40
2018-03-06T01:59:13.358Z,97.11
2018-03-06T02:01:06.754Z,97.30
2018-03-06T02:02:06.537Z,97.11
2018-03-06T02:03:59.813Z,97.30
2018-03-06T02:04:59.712Z,97.59
2018-03-06T02:06:52.964Z,97.59
2018-03-06T02:07:52.889Z,97.87
2018-03-06T02:09:46.271Z,97.78
2018-03-06T02:10:46.067Z,98.25
2018-03-06T02:12:39.411Z,97.97
2018-03-06T02:13:39.340Z,98.35
2018-03-06T02:15:32.610Z,98.25
2018-03-06T02:16:32.508Z,98.44
2018-03-06T02:18:25.754Z,98.25
2018-03-06T02:19:25.679Z,98.06
2018-03-06T02:21:19.062Z,98.49
2018-03-06T02:22:18.859Z,98.44
2018-03-06T02:24:12.220Z,98.63
2018-03-06T02:25:12.035Z,98.82
2018-03-06T02:27:05.431Z,98.72
2018-03-06T02:28:05.338Z,98.54
2018-03-06T02:29:58.597Z,98.35
2018-03-06T02:30:58.505Z,99.01
2018-03-06T02:32:51.756Z,98.86
2018-03-06T02:33:51.681Z,98.96
2018-03-06T02:35:44.954Z,98.58
2018-03-06T02:36:44.861Z,98.77
2018-03-06T02:38:38.114Z,98.86
2018-03-06T02:39:38.039Z,98.86
2018-03-06T02:41:31.307Z,98.77
2018-03-06T02:42:31.216Z,98.49
2018-03-06T02:44:24.580Z,99.05
2018-03-06T02:45:24.496Z,98.68
2018-03-06T02:47:17.878Z,99.24
2018-03-06T02:48:17.678Z,99.43
2018-03-06T02:50:10.934Z,99.43
2018-03-06T02:51:10.839Z,99.05
2018-03-06T02:53:04.090Z,99.33
2018-03-06T02:54:04.017Z,99.52
2018-03-06T02:55:57.286Z,99.43
2018-03-06T02:56:57.194Z,99.52
2018-03-06T02:58:50.578Z,99.24
2018-03-06T02:59:50.497Z,99.33
2018-03-06T03:01:43.878Z,99.62
2018-03-06T03:02:43.676Z,99.62
2018-03-06T03:04:36.915Z,99.90
2018-03-06T03:05:36.840Z,99.81
2018-03-06T03:07:30.221Z,99.99
2018-03-06T03:08:30.018Z,99.99
2018-03-06T03:10:23.407Z,99.99
2018-03-06T03:11:23.192Z,99.99
2018-03-06T03:13:16.580Z,99.99
2018-03-06T03:14:16.504Z,99.99
2018-03-06T03:16:09.885Z,99.99
2018-03-06T03:17:09.682Z,99.99
2018-03-06T03:19:03.046Z,99.99
2018-03-06T03:20:02.862Z,99.99
2018-03-06T03:21:56.242Z,99.99
2018-03-06T03:22:56.039Z,99.99
2018-03-06T03:24:49.287Z,99.99
2018-03-06T03:25:49.217Z,99.99
2018-03-06T03:27:42.602Z,99.99
2018-03-06T03:28:42.508Z,99.99
2018-03-06T03:30:35.755Z,99.99
2018-03-06T03:31:35.686Z,99.99
2018-03-06T03:33:28.948Z,99.99
2018-03-06T03:34:28.857Z,99.99
2018-03-06T03:36:22.242Z,99.99
2018-03-06T03:37:22.037Z,99.99
2018-03-06T03:39:15.291Z,99.99
2018-03-06T03:40:15.212Z,99.99
2018-03-06T03:42:08.600Z,99.99
2018-03-06T03:43:08.507Z,99.99
2018-03-06T03:45:01.761Z,99.99
2018-03-06T03:46:01.688Z,99.99
2018-03-06T03:47:54.959Z,99.99
2018-03-06T03:48:54.865Z,99.99
2018-03-06T03:50:48.110Z,99.99
2018-03-06T03:51:48.038Z,99.99
2018-03-06T03:53:41.598Z,99.99
2018-03-06T03:54:41.512Z,99.99
2018-03-06T03:56:34.761Z,99.99
2018-03-06T03:57:34.686Z,99.99
2018-03-06T03:59:27.956Z,99.99
2018-03-06T04:00:27.863Z,99.99
2018-03-06T04:02:21.118Z,99.99
2018-03-06T04:03:21.041Z,99.99
2018-03-06T04:05:14.428Z,99.99
2018-03-06T04:06:14.219Z,99.99
2018-03-06T04:08:07.600Z,99.99
2018-03-06T04:09:07.507Z,99.99
2018-03-06T04:11:00.756Z,99.99
2018-03-06T04:12:00.688Z,99.99
2018-03-06T04:13:53.954Z,99.99
2018-03-06T04:14:53.860Z,99.99
2018-03-06T04:16:47.111Z,99.99
2018-03-06T04:17:47.037Z,99.99
2018-03-06T04:19:40.313Z,99.99
2018-03-06T04:20:40.219Z,99.99
2018-03-06T04:22:33.576Z,99.99
2018-03-06T04:23:33.503Z,99.99
2018-03-06T04:25:26.779Z,99.99
2018-03-06T04:26:26.685Z,99.99
2018-03-06T04:28:19.928Z,99.99
2018-03-06T04:29:19.857Z,99.99
2018-03-06T04:31:13.125Z,99.99
2018-03-06T04:32:13.033Z,99.99
2018-03-06T04:34:06.322Z,99.99
2018-03-06T04:35:06.217Z,99.99
2018-03-06T04:36:59.565Z,99.99
2018-03-06T04:37:59.493Z,99.99
2018-03-06T04:39:52.766Z,99.99
2018-03-06T04:40:52.678Z,99.99
2018-03-06T04:42:45.924Z,99.99
2018-03-06T04:43:45.848Z,99.99
2018-03-06T04:45:39.230Z,99.99
2018-03-06T04:46:39.025Z,99.99
2018-03-06T04:48:32.276Z,99.99
2018-03-06T04:49:32.204Z,99.99
2018-03-06T04:51:26.462Z,99.99
2018-03-06T04:52:26.365Z,99.99
2018-03-06T04:54:19.618Z,99.99
2018-03-06T04:55:19.544Z,99.99
2018-03-06T04:57:12.816Z,99.99
2018-03-06T04:58:12.723Z,99.99
2018-03-06T05:00:05.976Z,99.99
2018-03-06T05:01:05.902Z,99.99
2018-03-06T05:02:59.167Z,99.99
2018-03-06T05:03:59.080Z,99.99
2018-03-06T05:05:52.608Z,99.99
2018-03-06T05:06:52.505Z,99.99
2018-03-06T05:08:45.760Z,99.99
2018-03-06T05:09:45.683Z,99.99
2018-03-06T05:11:38.954Z,99.99
2018-03-06T05:12:38.904Z,99.99
2018-03-06T05:14:32.113Z,99.99
2018-03-06T05:15:32.040Z,99.99
2018-03-06T05:17:25.311Z,99.99
2018-03-06T05:18:25.217Z,99.99
2018-03-06T05:20:18.572Z,99.99
2018-03-06T05:21:18.502Z,99.99
2018-03-06T05:23:11.885Z,99.99
2018-03-06T05:24:11.677Z,99.99
2018-03-06T05:26:04.930Z,99.99
2018-03-06T05:27:04.856Z,99.99
2018-03-06T05:28:58.123Z,99.99
2018-03-06T05:29:58.028Z,99.99
2018-03-06T05:31:51.396Z,99.99
2018-03-06T05:32:51.210Z,99.99
2018-03-06T05:34:44.593Z,99.99
2018-03-06T05:35:44.495Z,99.99
2018-03-06T05:37:37.769Z,99.99
2018-03-06T05:38:37.673Z,99.99
2018-03-06T05:40:30.926Z,99.99
2018-03-06T05:41:30.852Z,99.99
2018-03-06T05:43:24.118Z,99.99
2018-03-06T05:44:24.030Z,99.99
2018-03-06T05:46:17.275Z,99.99
2018-03-06T05:47:17.223Z,99.99
2018-03-06T05:49:10.596Z,99.99
2018-03-06T05:50:10.507Z,99.99
2018-03-06T05:52:03.755Z,99.99
2018-03-06T05:53:03.681Z,99.99
2018-03-06T05:54:56.950Z,99.99
2018-03-06T05:55:56.857Z,99.99
2018-03-06T05:57:50.133Z,99.99
2018-03-06T05:58:50.032Z,99.99
2018-03-06T06:00:43.281Z,99.99
2018-03-06T06:01:43.206Z,99.99
2018-03-06T06:03:36.479Z,99.99
2018-03-06T06:04:36.386Z,99.99
2018-03-06T06:06:29.636Z,99.99
2018-03-06T06:07:29.558Z,99.99
2018-03-06T06:09:22.825Z,99.99
2018-03-06T06:10:22.734Z,99.99
2018-03-06T06:12:16.096Z,99.99
2018-03-06T06:13:15.910Z,99.99
2018-03-06T06:15:09.184Z,99.99
2018-03-06T06:16:09.089Z,99.99
2018-03-06T06:18:02.451Z,99.99
2018-03-06T06:19:02.267Z,99.99
2018-03-06T06:20:55.603Z,99.99
2018-03-06T06:21:55.522Z,99.99
2018-03-06T06:23:48.796Z,99.99
2018-03-06T06:24:48.689Z,99.99
2018-03-06T06:26:42.061Z,99.99
2018-03-06T06:27:41.865Z,99.99
2018-03-06T06:29:35.140Z,99.99
2018-03-06T06:30:35.043Z,99.99
2018-03-06T06:32:28.328Z,99.99
2018-03-06T06:33:28.217Z,99.99
2018-03-06T06:35:21.602Z,99.99
2018-03-06T06:36:21.495Z,99.99
2018-03-06T06:38:14.752Z,99.99
2018-03-06T06:39:14.721Z,99.99
2018-03-06T06:41:08.058Z,99.99
2018-03-06T06:42:07.852Z,99.99
2018-03-06T06:44:01.098Z,99.99
2018-03-06T06:45:01.025Z,99.99
2018-03-06T06:46:54.296Z,99.99
2018-03-06T06:47:54.203Z,99.99
2018-03-06T06:49:47.579Z,99.99
2018-03-06T06:50:47.505Z,99.99
2018-03-06T06:52:40.774Z,99.99
2018-03-06T06:53:40.683Z,99.99
2018-03-06T06:55:33.980Z,99.99
2018-03-06T06:56:33.856Z,99.99
2018-03-06T06:58:27.217Z,99.99
2018-03-06T06:59:27.040Z,99.99
2018-03-06T07:01:20.414Z,99.99
2018-03-06T07:02:20.226Z,99.99
2018-03-06T07:04:13.592Z,99.99
2018-03-06T07:05:13.499Z,99.99
2018-03-06T07:07:07.769Z,99.99
2018-03-06T07:08:07.677Z,99.99
2018-03-06T07:10:00.916Z,99.96
2018-03-06T07:11:00.840Z,99.81
2018-03-06T07:12:54.115Z,99.81
2018-03-06T07:13:54.018Z,99.86
2018-03-06T07:15:47.317Z,99.67
2018-03-06T07:16:47.193Z,99.48
2018-03-06T07:18:40.597Z,99.86
2018-03-06T07:19:40.502Z,99.96
2018-03-06T07:21:33.772Z,99.39
2018-03-06T07:22:33.680Z,99.77
2018-03-06T07:24:26.928Z,99.29
2018-03-06T07:25:26.857Z,99.58
2018-03-06T07:27:20.126Z,98.91
2018-03-06T07:28:20.033Z,98.54
2018-03-06T07:30:13.284Z,99.10
2018-03-06T07:31:13.211Z,98.06
2018-03-06T07:33:06.482Z,98.06
2018-03-06T07:34:06.391Z,97.87
2018-03-06T07:35:59.642Z,98.16
2018-03-06T07:36:59.566Z,97.97
2018-03-06T07:38:52.839Z,96.92
2018-03-06T07:39:52.747Z,97.21
2018-03-06T07:41:46.010Z,96.26
2018-03-06T07:42:45.922Z,96.26
2018-03-06T07:44:39.193Z,96.64
2018-03-06T07:45:39.101Z,96.73
2018-03-06T07:47:32.491Z,96.83
2018-03-06T07:48:32.281Z,96.17
2018-03-06T07:50:25.641Z,96.26
2018-03-06T07:51:25.451Z,96.41
2018-03-06T07:53:18.761Z,95.93
2018-03-06T07:54:18.625Z,95.55
2018-03-06T07:56:11.990Z,95.74
2018-03-06T07:57:11.857Z,95.17
2018-03-06T07:59:05.053Z,95.55
2018-03-06T08:00:04.959Z,95.26
2018-03-06T08:01:58.199Z,95.07
2018-03-06T08:02:58.125Z,94.98
2018-03-06T08:04:51.435Z,94.42
2018-03-06T08:05:51.342Z,94.32
2018-03-06T08:07:44.583Z,94.13
2018-03-06T08:08:44.630Z,94.32
2018-03-06T08:10:37.791Z,94.23
2018-03-06T08:11:37.709Z,93.65
2018-03-06T08:13:30.937Z,93.18
2018-03-06T08:14:30.846Z,92.90
2018-03-06T08:16:24.084Z,93.46
2018-03-06T08:17:24.017Z,93.56
2018-03-06T08:19:17.276Z,93.27
2018-03-06T08:20:17.187Z,93.13
2018-03-06T08:22:10.427Z,92.66
2018-03-06T08:23:10.354Z,93.32
2018-03-06T08:25:04.615Z,92.85
2018-03-06T08:26:04.523Z,92.47
2018-03-06T08:27:57.766Z,91.99
2018-03-06T08:28:57.694Z,91.71
2018-03-06T08:30:50.973Z,91.33
2018-03-06T08:31:50.867Z,91.33
2018-03-06T08:33:44.108Z,90.81
2018-03-06T08:34:44.038Z,90.71
2018-03-06T08:36:37.435Z,89.67
2018-03-06T08:37:37.353Z,89.29
2018-03-06T08:39:30.604Z,88.01
2018-03-06T08:40:30.515Z,87.53
2018-03-06T08:42:23.762Z,85.68
2018-03-06T08:43:23.684Z,84.16
2018-03-06T08:45:16.946Z,81.06
2018-03-06T08:46:16.856Z,80.44
2018-03-06T08:48:10.104Z,79.11
2018-03-06T08:49:10.031Z,79.11
2018-03-06T08:51:03.435Z,78.06
2018-03-06T08:52:03.363Z,76.96
2018-03-06T08:53:56.599Z,75.57
2018-03-06T08:54:56.520Z,74.80
2018-03-06T08:56:49.793Z,73.47
2018-03-06T08:57:49.704Z,73.47
2018-03-06T08:59:43.073Z,73.66
2018-03-06T09:00:42.895Z,74.01
2018-03-06T09:02:36.167Z,74.80
2018-03-06T09:03:36.092Z,73.85
2018-03-06T09:05:29.437Z,73.38
2018-03-06T09:06:29.349Z,73.10
2018-03-06T09:08:22.605Z,72.85
2018-03-06T09:09:22.528Z,72.33
2018-03-06T09:11:15.814Z,72.08
2018-03-06T09:12:15.725Z,72.14
2018-03-06T09:14:08.986Z,71.22
2018-03-06T09:15:08.922Z,71.51
2018-03-06T09:17:02.193Z,70.56
2018-03-06T09:18:02.105Z,71.03
2018-03-06T09:19:55.417Z,70.69
2018-03-06T09:20:55.344Z,70.12
2018-03-06T09:22:48.621Z,69.64
2018-03-06T09:23:48.534Z,69.35
2018-03-06T09:25:41.906Z,69.45
2018-03-06T09:26:41.722Z,69.45
2018-03-06T09:28:34.993Z,67.77
2018-03-06T09:29:34.909Z,67.58
2018-03-06T09:31:28.340Z,66.91
2018-03-06T09:32:28.093Z,65.89
2018-03-06T09:34:21.409Z,64.12
2018-03-06T09:35:21.351Z,63.64
2018-03-06T09:37:14.630Z,62.34
2018-03-06T09:38:14.540Z,62.02
2018-03-06T09:40:07.802Z,64.02
2018-03-06T09:41:07.733Z,63.83
2018-03-06T09:43:01.011Z,64.18
2018-03-06T09:44:00.927Z,64.94
2018-03-06T09:45:54.201Z,64.02
2018-03-06T09:46:54.128Z,63.29
2018-03-06T09:48:47.444Z,63.16
2018-03-06T09:49:47.355Z,62.88
2018-03-06T09:51:40.612Z,62.43
2018-03-06T09:52:40.549Z,63.35
2018-03-06T09:54:33.944Z,62.27
2018-03-06T09:55:33.763Z,60.90
2018-03-06T09:57:27.024Z,62.68
2018-03-06T09:58:26.954Z,64.37
2018-03-06T10:00:20.239Z,65.89
2018-03-06T10:01:20.158Z,65.99
2018-03-06T10:03:13.446Z,63.67
2018-03-06T10:04:13.357Z,61.66
2018-03-06T10:06:06.624Z,59.91
2018-03-06T10:07:06.558Z,57.81
2018-03-06T10:08:59.954Z,56.79
2018-03-06T10:09:59.779Z,57.04
2018-03-06T10:11:53.042Z,58.54
2018-03-06T10:12:52.979Z,59.69
2018-03-06T10:14:46.375Z,59.91
2018-03-06T10:15:46.180Z,58.00
2018-03-06T10:17:39.452Z,57.62
2018-03-06T10:18:39.381Z,57.65
2018-03-06T10:20:32.779Z,54.23
2018-03-06T10:21:32.591Z,53.47
2018-03-06T10:23:25.867Z,53.47
2018-03-06T10:24:25.804Z,53.16
2018-03-06T10:26:19.091Z,53.37
2018-03-06T10:27:19.008Z,52.89
2018-03-06T10:29:12.291Z,56.21
2018-03-06T10:30:12.209Z,55.93
2018-03-06T10:32:04.987Z,57.24
2018-03-06T10:33:04.928Z,56.67
2018-03-06T10:34:58.209Z,55.74
2018-03-06T10:35:58.125Z,55.19
2018-03-06T10:37:51.501Z,54.30
2018-03-06T10:38:51.374Z,55.16
2018-03-06T10:40:44.644Z,56.09
2018-03-06T10:41:44.561Z,57.24
2018-03-06T10:43:37.857Z,55.71
2018-03-06T10:44:37.770Z,55.54
2018-03-06T10:46:31.056Z,52.73
2018-03-06T10:47:30.974Z,51.77
2018-03-06T10:49:24.352Z,50.81
2018-03-06T10:50:24.187Z,51.07
2018-03-06T10:52:17.472Z,53.03
2018-03-06T10:53:17.400Z,53.99
2018-03-06T10:55:10.690Z,54.30
2018-03-06T10:56:10.592Z,54.02
2018-03-06T10:58:04.015Z,54.49
2018-03-06T10:59:03.793Z,53.85
2018-03-06T11:00:57.082Z,51.01
2018-03-06T11:01:56.997Z,50.81
2018-03-06T11:03:50.259Z,51.01
2018-03-06T11:04:50.197Z,51.29
2018-03-06T11:06:43.484Z,50.91
2018-03-06T11:07:43.411Z,52.51
2018-03-06T11:09:36.781Z,51.01
2018-03-06T11:10:36.652Z,51.29
2018-03-06T11:12:30.008Z,49.98
2018-03-06T11:13:29.822Z,49.50
2018-03-06T11:15:23.201Z,50.15
2018-03-06T11:16:23.035Z,51.39
2018-03-06T11:18:16.329Z,53.18
2018-03-06T11:19:16.241Z,54.11
2018-03-06T11:21:09.627Z,56.18
2018-03-06T11:22:09.464Z,57.24
2018-03-06T11:24:02.748Z,57.68
2018-03-06T11:25:02.667Z,58.07
2018-03-06T11:26:56.079Z,58.64
2018-03-06T11:27:55.878Z,58.54
2018-03-06T11:29:49.145Z,57.97
2018-03-06T11:30:49.084Z,58.07
2018-03-06T11:32:42.481Z,57.68
2018-03-06T11:33:42.291Z,57.53
2018-03-06T11:35:35.620Z,58.07
2018-03-06T11:36:35.493Z,58.00
2018-03-06T11:38:28.776Z,57.59
2018-03-06T11:39:28.693Z,57.50
2018-03-06T11:41:21.956Z,58.36
2018-03-06T11:42:21.953Z,58.26
2018-03-06T11:44:15.174Z,58.61
2018-03-06T11:45:15.093Z,59.38
2018-03-06T11:47:08.359Z,59.95
2018-03-06T11:48:08.290Z,60.33
2018-03-06T11:50:01.576Z,60.74
2018-03-06T11:51:01.495Z,60.17
2018-03-06T11:52:54.787Z,59.78
2018-03-06T11:53:54.702Z,59.22
2018-03-06T11:55:47.962Z,59.19
2018-03-06T11:56:47.895Z,60.14
2018-03-06T11:58:41.293Z,60.81
2018-03-06T11:59:41.092Z,60.74
2018-03-06T12:01:34.356Z,60.07
2018-03-06T12:02:34.293Z,59.41
2018-03-06T12:04:27.573Z,58.38
2018-03-06T12:05:27.489Z,57.97
2018-03-06T12:07:20.749Z,58.10
2018-03-06T12:08:20.747Z,58.45
2018-03-06T12:10:14.037Z,58.73
2018-03-06T12:11:13.880Z,59.41
2018-03-06T12:13:07.263Z,59.22
2018-03-06T12:14:07.087Z,59.22
2018-03-06T12:16:00.364Z,59.31
2018-03-06T12:17:00.279Z,59.22
2018-03-06T12:18:53.567Z,58.73
2018-03-06T12:19:53.477Z,58.54
2018-03-06T12:21:46.779Z,59.41
2018-03-06T12:22:46.672Z,59.22
2018-03-06T12:24:40.072Z,58.93
2018-03-06T12:25:39.894Z,58.54
2018-03-06T12:27:33.148Z,58.83
2018-03-06T12:28:33.083Z,58.64
2018-03-06T12:30:26.479Z,58.38
2018-03-06T12:31:26.280Z,58.29
2018-03-06T12:33:19.659Z,58.00
2018-03-06T12:34:19.478Z,58.26
2018-03-06T12:36:12.758Z,58.64
2018-03-06T12:37:12.674Z,58.64
2018-03-06T12:39:06.081Z,58.83
2018-03-06T12:40:05.903Z,58.07
2018-03-06T12:41:59.161Z,58.19
2018-03-06T12:42:59.130Z,58.19
2018-03-06T12:44:52.387Z,57.14
2018-03-06T12:45:52.311Z,57.14
2018-03-06T12:47:45.689Z,57.97
2018-03-06T12:48:45.507Z,58.67
2018-03-06T12:50:38.804Z,58.67
2018-03-06T12:51:38.705Z,58.26
2018-03-06T12:53:31.968Z,58.10
2018-03-06T12:54:31.903Z,58.10
2018-03-06T12:56:25.195Z,58.00
2018-03-06T12:57:25.116Z,57.81
2018-03-06T12:59:18.411Z,57.81
2018-03-06T13:00:18.315Z,57.71
2018-03-06T13:02:11.575Z,58.00
2018-03-06T13:03:11.510Z,58.10
2018-03-06T13:05:04.878Z,57.81
2018-03-06T13:06:04.781Z,58.00
2018-03-06T13:07:58.156Z,57.71
2018-03-06T13:08:57.979Z,57.33
2018-03-06T13:10:51.302Z,57.90
2018-03-06T13:11:51.180Z,58.00
2018-03-06T13:13:44.443Z,57.17
2018-03-06T13:14:44.382Z,57.24
2018-03-06T13:16:37.678Z,57.81
2018-03-06T13:17:37.595Z,57.90
2018-03-06T13:19:30.859Z,57.71
2018-03-06T13:20:30.793Z,57.71
2018-03-06T13:22:24.069Z,57.14
2018-03-06T13:23:23.989Z,57.90
2018-03-06T13:25:17.251Z,58.10
2018-03-06T13:26:17.188Z,58.00
2018-03-06T13:28:10.585Z,58.10
2018-03-06T13:29:10.395Z,58.38
2018-03-06T13:31:03.656Z,58.73
2018-03-06T13:32:03.591Z,58.86
2018-03-06T13:33:56.987Z,58.95
2018-03-06T13:34:56.784Z,58.38
2018-03-06T13:36:50.063Z,58.95
2018-03-06T13:37:49.985Z,59.34
2018-03-06T13:39:43.265Z,59.34
2018-03-06T13:40:43.187Z,59.24
2018-03-06T13:42:36.578Z,59.44
2018-03-06T13:43:36.380Z,59.24
2018-03-06T13:45:29.755Z,59.24
2018-03-06T13:46:29.581Z,59.34
2018-03-06T13:48:22.860Z,58.86
2018-03-06T13:49:22.777Z,59.05
2018-03-06T13:51:16.163Z,58.95
2018-03-06T13:52:16.005Z,58.76
2018-03-06T13:54:09.253Z,59.44
2018-03-06T13:55:09.173Z,58.76
2018-03-06T13:57:02.545Z,58.38
2018-03-06T13:58:02.381Z,58.38
2018-03-06T13:59:55.784Z,59.53
2018-03-06T14:00:55.583Z,59.24
2018-03-06T14:02:48.853Z,59.24
2018-03-06T14:03:48.793Z,59.34
2018-03-06T14:05:42.073Z,59.15
2018-03-06T14:06:41.989Z,59.91
2018-03-06T14:08:35.252Z,59.81
2018-03-06T14:09:35.188Z,59.53
2018-03-06T14:11:28.587Z,59.15
2018-03-06T14:12:28.386Z,59.47
2018-03-06T14:14:21.677Z,58.67
2018-03-06T14:15:21.584Z,58.19
2018-03-06T14:17:14.844Z,58.58
2018-03-06T14:18:14.784Z,59.44
2018-03-06T14:20:08.066Z,59.81
2018-03-06T14:21:07.982Z,60.39
2018-03-06T14:23:01.260Z,59.63
2018-03-06T14:24:01.206Z,59.53
2018-03-06T14:25:54.574Z,58.58
2018-03-06T14:26:54.368Z,58.95
2018-03-06T14:28:47.752Z,60.10
2018-03-06T14:29:47.573Z,61.06
2018-03-06T14:31:40.856Z,60.20
2018-03-06T14:32:40.773Z,60.10
2018-03-06T14:34:34.032Z,60.07
2018-03-06T14:35:33.966Z,60.58
2018-03-06T14:37:27.299Z,59.91
2018-03-06T14:38:27.167Z,59.81
2018-03-06T14:40:20.452Z,59.81
2018-03-06T14:41:20.367Z,59.24
2018-03-06T14:43:13.626Z,59.44
2018-03-06T14:44:13.564Z,59.81
2018-03-06T14:46:06.959Z,59.91
2018-03-06T14:47:06.760Z,60.30
2018-03-06T14:49:00.050Z,59.47
2018-03-06T14:49:59.990Z,59.84
2018-03-06T14:51:53.268Z,58.61
2018-03-06T14:52:53.185Z,58.80
2018-03-06T14:54:46.452Z,59.24
2018-03-06T14:55:46.383Z,59.91
2018-03-06T14:57:39.669Z,61.13
2018-03-06T14:58:39.581Z,60.74
2018-03-06T15:00:32.845Z,60.68
2018-03-06T15:01:32.783Z,60.77
2018-03-06T15:03:26.071Z,60.01
2018-03-06T15:04:25.973Z,60.10
2018-03-06T15:06:19.427Z,59.91
2018-03-06T15:07:19.182Z,59.94
2018-03-06T15:09:12.442Z,59.56
2018-03-06T15:10:12.423Z,59.84
2018-03-06T15:12:05.680Z,59.37
2018-03-06T15:13:05.597Z,59.08
2018-03-06T15:14:58.859Z,59.08
2018-03-06T15:15:58.810Z,59.34
2018-03-06T15:17:53.083Z,59.05
2018-03-06T15:18:53.000Z,59.44
2018-03-06T15:20:46.263Z,59.81
2018-03-06T15:21:46.194Z,60.20
2018-03-06T15:23:39.586Z,60.49
2018-03-06T15:24:39.394Z,60.20
2018-03-06T15:26:32.674Z,60.30
2018-03-06T15:27:32.601Z,60.58
2018-03-06T15:29:25.885Z,60.58
2018-03-06T15:30:25.799Z,60.87
2018-03-06T15:32:19.131Z,60.49
2018-03-06T15:33:19.056Z,60.96
2018-03-06T15:35:12.315Z,61.25
2018-03-06T15:36:12.245Z,60.84
2018-03-06T15:38:05.643Z,60.74
2018-03-06T15:39:05.440Z,60.84
2018-03-06T15:40:58.819Z,61.13
2018-03-06T15:41:58.640Z,61.22
2018-03-06T15:43:51.917Z,61.60
2018-03-06T15:44:51.835Z,61.60
2018-03-06T15:46:45.210Z,62.37
2018-03-06T15:47:45.031Z,62.46
2018-03-06T15:49:38.425Z,62.94
2018-03-06T15:50:38.343Z,62.65
2018-03-06T15:52:31.616Z,62.65
2018-03-06T15:53:31.546Z,62.75
2018-03-06T15:55:24.835Z,63.13
2018-03-06T15:56:24.741Z,63.29
2018-03-06T15:58:18.027Z,63.23
2018-03-06T15:59:17.940Z,62.84
2018-03-06T16:01:11.231Z,63.23
2018-03-06T16:02:11.130Z,63.32
2018-03-06T16:04:04.441Z,63.23
2018-03-06T16:05:04.360Z,63.13
2018-03-06T16:06:57.655Z,63.67
2018-03-06T16:07:57.551Z,63.67
2018-03-06T16:09:50.829Z,63.76
2018-03-06T16:10:50.744Z,63.76
2018-03-06T16:12:44.122Z,64.05
2018-03-06T16:13:43.966Z,64.43
2018-03-06T16:15:37.251Z,64.43
2018-03-06T16:16:37.190Z,64.62
2018-03-06T16:18:30.422Z,64.34
2018-03-06T16:19:30.360Z,64.53
2018-03-06T16:21:24.015Z,64.34
2018-03-06T16:22:23.554Z,64.53
2018-03-06T16:24:16.955Z,64.81
2018-03-06T16:25:16.805Z,65.01
2018-03-06T16:27:10.007Z,65.01
2018-03-06T16:28:09.944Z,64.91
2018-03-06T16:30:04.074Z,65.74
2018-03-06T16:31:03.997Z,65.30
2018-03-06T16:32:57.251Z,65.55
2018-03-06T16:33:57.203Z,65.74
2018-03-06T16:35:50.471Z,66.02
2018-03-06T16:36:50.387Z,66.22
2018-03-06T16:38:43.682Z,66.12
2018-03-06T16:39:43.663Z,66.50
2018-03-06T16:41:36.863Z,66.50
2018-03-06T16:42:36.774Z,66.98
2018-03-06T16:44:30.049Z,67.07
2018-03-06T16:45:29.983Z,66.88
2018-03-06T16:47:23.265Z,67.46
2018-03-06T16:48:23.173Z,67.46
2018-03-06T16:50:16.573Z,68.03
2018-03-06T16:51:16.371Z,68.32
2018-03-06T16:53:09.746Z,68.18
2018-03-06T16:54:09.563Z,68.41
2018-03-06T16:56:02.844Z,68.28
2018-03-06T16:57:02.783Z,68.47
2018-03-06T16:58:56.230Z,68.38
2018-03-06T16:59:55.955Z,68.66
2018-03-06T17:01:50.231Z,68.85
2018-03-06T17:02:50.147Z,68.95
2018-03-06T17:04:43.438Z,69.04
2018-03-06T17:05:43.369Z,69.23
2018-03-06T17:07:36.616Z,69.23
2018-03-06T17:08:36.535Z,69.52
2018-03-06T17:10:29.815Z,70.09
2018-03-06T17:11:29.746Z,69.90
2018-03-06T17:13:23.021Z,69.81
2018-03-06T17:14:22.937Z,70.19
2018-03-06T17:16:16.331Z,70.47
2018-03-06T17:17:16.133Z,70.38
2018-03-06T17:19:09.394Z,70.19
2018-03-06T17:20:09.327Z,70.67
2018-03-06T17:22:02.629Z,70.92
2018-03-06T17:23:02.539Z,71.30
2018-03-06T17:24:55.913Z,71.20
2018-03-06T17:25:55.732Z,71.68
2018-03-06T17:27:49.126Z,71.87
2018-03-06T17:28:48.925Z,71.58
2018-03-06T17:30:42.181Z,71.14
2018-03-06T17:31:42.120Z,71.04
2018-03-06T17:33:35.469Z,70.67
2018-03-06T17:34:35.383Z,70.67
2018-03-06T17:36:28.656Z,70.67
2018-03-06T17:37:28.573Z,70.19
2018-03-06T17:39:21.855Z,70.28
2018-03-06T17:40:21.764Z,70.00
2018-03-06T17:42:15.158Z,70.47
2018-03-06T17:43:14.952Z,70.86
2018-03-06T17:45:08.222Z,71.04
2018-03-06T17:46:08.162Z,71.04
2018-03-06T17:48:01.563Z,70.76
2018-03-06T17:49:01.344Z,71.04
2018-03-06T17:50:54.609Z,71.14
2018-03-06T17:51:54.541Z,71.14
2018-03-06T17:53:47.326Z,71.39
2018-03-06T17:54:47.244Z,71.68
2018-03-06T17:56:40.618Z,72.72
2018-03-06T17:57:40.434Z,72.92
2018-03-06T17:59:33.707Z,73.49
2018-03-06T18:00:33.622Z,73.74
2018-03-06T18:02:26.878Z,73.83
2018-03-06T18:03:26.813Z,74.02
2018-03-06T18:05:20.087Z,74.88
2018-03-06T18:06:20.000Z,74.88
2018-03-06T18:08:13.258Z,75.55
2018-03-06T18:09:13.190Z,75.45
2018-03-06T18:11:06.580Z,75.74
2018-03-06T18:12:06.387Z,76.18
2018-03-06T18:13:59.675Z,76.08
2018-03-06T18:14:59.590Z,76.18
2018-03-06T18:16:53.852Z,76.84
2018-03-06T18:17:53.787Z,76.65
2018-03-06T18:19:47.072Z,76.84
2018-03-06T18:20:46.988Z,76.46
2018-03-06T18:22:40.252Z,76.75
2018-03-06T18:23:40.187Z,76.56
2018-03-06T18:25:33.490Z,76.75
2018-03-06T18:26:33.440Z,77.22
2018-03-06T18:28:26.669Z,77.13
2018-03-06T18:29:26.605Z,77.22
2018-03-06T18:31:19.991Z,76.94
2018-03-06T18:32:19.805Z,77.51
2018-03-06T18:34:13.067Z,78.08
2018-03-06T18:35:13.002Z,77.98